Time;durP1;ratioP1;P1;durP2;ratioP2;P2;SDS_P1;SDS_P2;PMS_P1;PMS_P2;Temp;Humidity;BMP_temperature;BMP_pressure;BME280_temperature;BME280_humidity;BME280_pressure;Samples;Min_cycle;Max_cycle;Signal;HPM_P1;HPM_P2
2021/08/12 00:02:08;;;;;;;6.13;3.13;;;;;;;21.80;55.68;101890.34;5054098;28;20142;-59
2021/08/12 00:04:33;;;;;;;4.82;2.78;;;;;;;21.78;55.36;101886.09;5052857;28;20360;-59
2021/08/12 00:06:59;;;;;;;7.95;3.90;;;;;;;21.80;55.48;101894.81;5053723;28;20025;-59
2021/08/12 00:09:24;;;;;;;4.88;3.00;;;;;;;21.79;55.53;101885.16;5054293;28;20484;-59
2021/08/12 00:11:49;;;;;;;5.97;3.38;;;;;;;21.77;55.60;101876.47;5052915;28;20025;-60
2021/08/12 00:14:15;;;;;;;9.43;3.30;;;;;;;21.77;55.91;101879.13;5053293;28;20024;-59
2021/08/12 00:16:40;;;;;;;6.68;3.67;;;;;;;21.74;55.59;101883.69;5053379;28;20107;-59
2021/08/12 00:19:11;;;;;;;6.78;3.05;;;;;;;21.76;55.55;101894.19;5052586;28;20108;-58
2021/08/12 00:21:37;;;;;;;7.35;3.35;;;;;;;21.76;55.46;101893.34;5053523;28;20033;-59
2021/08/12 00:24:02;;;;;;;7.57;3.40;;;;;;;21.74;55.55;101891.66;5053009;28;20485;-59
2021/08/12 00:26:28;;;;;;;6.30;3.65;;;;;;;21.76;55.57;101893.34;5053717;28;20025;-59
2021/08/12 00:28:56;;;;;;;6.00;3.60;;;;;;;21.73;55.68;101887.34;5053432;28;20128;-59
2021/08/12 00:31:21;;;;;;;7.18;3.30;;;;;;;21.74;55.53;101885.53;5053021;28;20025;-59
2021/08/12 00:33:46;;;;;;;6.93;3.42;;;;;;;21.74;55.40;101890.81;5053300;28;20501;-60
2021/08/12 00:36:12;;;;;;;6.57;3.45;;;;;;;21.73;55.58;101900.59;5053535;28;20021;-62
2021/08/12 00:38:37;;;;;;;7.32;3.47;;;;;;;21.74;55.38;101890.81;5053046;28;20075;-59
2021/08/12 00:41:03;;;;;;;6.93;3.38;;;;;;;21.73;55.53;101897.13;5053319;28;20481;-59
2021/08/12 00:43:28;;;;;;;8.93;3.78;;;;;;;21.72;55.27;101896.25;5053826;28;20027;-59
2021/08/12 00:45:53;;;;;;;7.05;3.20;;;;;;;21.72;55.33;101893.59;5052502;28;20059;-59
2021/08/12 00:48:18;;;;;;;6.05;3.60;;;;;;;21.71;55.63;101888.41;5053126;28;20457;-59
2021/08/12 00:50:45;;;;;;;6.03;3.70;;;;;;;21.72;55.60;101888.28;5053146;28;20049;-60
2021/08/12 00:53:10;;;;;;;7.55;3.60;;;;;;;21.70;55.43;101892.88;5052759;28;20025;-60
2021/08/12 00:55:37;;;;;;;6.20;3.30;;;;;;;21.70;55.36;101889.41;5053566;28;20029;-59
2021/08/12 00:58:03;;;;;;;5.50;3.60;;;;;;;21.70;55.40;101887.59;5053307;28;20020;-59
2021/08/12 01:00:28;;;;;;;8.65;4.07;;;;;;;21.68;55.24;101884.22;5052589;28;20024;-60
2021/08/12 01:02:53;;;;;;;6.05;3.45;;;;;;;21.70;55.39;101886.75;5052937;28;20021;-59
2021/08/12 01:05:21;;;;;;;6.88;3.70;;;;;;;21.70;55.56;101892.06;5053252;28;20108;-59
2021/08/12 01:08:21;;;;;;;6.70;3.88;;;;;;;21.70;55.46;101892.06;5052174;28;20033;-59
2021/08/12 01:11:00;;;;;;;7.07;3.30;;;;;;;21.69;55.29;101887.72;5053150;28;20066;-58
2021/08/12 01:13:55;;;;;;;6.38;3.38;;;;;;;21.68;55.50;101884.22;5052447;28;20032;-58
2021/08/12 01:16:28;;;;;;;7.22;3.67;;;;;;;21.68;55.35;101889.53;5053269;28;20028;-58
2021/08/12 01:19:00;;;;;;;7.75;3.58;;;;;;;21.68;55.06;101891.31;5052922;28;20029;-59
2021/08/12 01:21:45;;;;;;;7.15;3.42;;;;;;;21.67;55.29;101882.53;5052291;28;20034;-61
2021/08/12 01:24:12;;;;;;;6.60;3.65;;;;;;;21.67;55.36;101889.66;5053073;28;20533;-59
2021/08/12 01:26:41;;;;;;;6.72;3.60;;;;;;;21.65;55.31;101884.47;5052905;28;20373;-60
2021/08/12 01:29:13;;;;;;;7.32;3.75;;;;;;;21.65;55.38;101884.47;5051849;28;20066;-60
2021/08/12 01:31:54;;;;;;;8.63;3.67;;;;;;;21.63;55.37;101890.84;5052709;28;20021;-59
2021/08/12 01:34:58;;;;;;;9.35;4.18;;;;;;;21.66;55.45;101885.31;5051985;28;20021;-59
2021/08/12 01:37:26;;;;;;;6.00;3.63;;;;;;;21.65;55.37;101881.81;5052275;28;20064;-60
2021/08/12 01:39:53;;;;;;;5.93;4.60;;;;;;;21.63;55.22;101889.03;5052435;28;20477;-59
2021/08/12 01:42:19;;;;;;;7.35;4.15;;;;;;;21.65;55.28;101891.56;5051945;28;20029;-59
2021/08/12 01:44:46;;;;;;;8.25;3.72;;;;;;;21.63;55.40;101896.16;5052252;28;20097;-59
2021/08/12 01:47:13;;;;;;;5.88;3.60;;;;;;;21.64;55.38;101893.38;5052717;28;20079;-60
2021/08/12 01:49:41;;;;;;;6.38;3.70;;;;;;;21.62;55.38;101894.47;5052135;28;20035;-60
2021/08/12 01:52:08;;;;;;;6.13;3.75;;;;;;;21.60;55.30;101883.13;5052327;28;20025;-60
2021/08/12 01:54:34;;;;;;;7.75;3.88;;;;;;;21.63;55.34;101888.19;5052477;28;20021;-59
2021/08/12 01:57:00;;;;;;;6.43;3.65;;;;;;;21.61;55.11;101877.72;5051399;28;20025;-58
2021/08/12 01:59:27;;;;;;;5.95;3.47;;;;;;;21.61;55.42;101869.75;5052282;28;20025;-59
2021/08/12 02:01:54;;;;;;;5.35;3.55;;;;;;;21.58;55.22;101870.00;5052179;28;20057;-60
2021/08/12 02:04:21;;;;;;;6.00;3.70;;;;;;;21.62;55.23;101870.59;5051667;28;20027;-60
2021/08/12 02:06:48;;;;;;;6.45;3.70;;;;;;;21.61;55.24;101868.91;5051978;28;20098;-60
2021/08/12 02:09:14;;;;;;;6.10;3.40;;;;;;;21.61;55.37;101866.25;5052276;28;20032;-60
2021/08/12 02:11:39;;;;;;;6.70;4.22;;;;;;;21.61;55.16;101860.97;5051647;28;20098;-59
2021/08/12 02:14:11;;;;;;;7.22;3.97;;;;;;;21.61;55.35;101850.34;5051836;28;20385;-59
2021/08/12 02:16:36;;;;;;;5.50;3.50;;;;;;;21.60;55.30;101841.53;5051448;28;20029;-59
2021/08/12 02:19:07;;;;;;;7.87;3.90;;;;;;;21.60;55.38;101840.69;5051955;28;20024;-59
2021/08/12 02:21:45;;;;;;;5.63;3.40;;;;;;;21.59;55.31;101839.00;5051883;28;20340;-59
2021/08/12 02:24:16;;;;;;;5.15;3.45;;;;;;;21.59;55.17;101834.56;5051261;28;20029;-59
2021/08/12 02:26:55;;;;;;;6.18;3.78;;;;;;;21.59;55.29;101839.88;5051475;28;20443;-59
2021/08/12 02:29:20;;;;;;;5.88;3.55;;;;;;;21.59;55.29;101837.22;5055525;28;20477;-60
2021/08/12 02:31:46;;;;;;;6.93;3.80;;;;;;;21.58;55.27;101832.03;5054940;28;20086;-60
2021/08/12 02:34:14;;;;;;;7.50;4.05;;;;;;;21.58;55.20;101832.03;5056141;28;20037;-60
2021/08/12 02:36:42;;;;;;;6.15;3.75;;;;;;;21.57;55.30;101836.50;5056095;28;20109;-60
2021/08/12 02:39:11;;;;;;;9.65;3.70;;;;;;;21.57;55.26;101836.50;5055227;28;20025;-60
2021/08/12 02:41:36;;;;;;;7.90;3.60;;;;;;;21.56;55.24;101837.44;5056059;28;20051;-59
2021/08/12 02:44:03;;;;;;;9.90;4.05;;;;;;;21.56;55.31;101846.25;5055695;28;20464;-59
2021/08/12 02:46:32;;;;;;;6.68;3.45;;;;;;;21.55;55.24;101844.56;5054911;28;20024;-59
2021/08/12 02:49:02;;;;;;;5.93;3.75;;;;;;;21.55;55.18;101844.56;5055576;28;20060;-60
2021/08/12 02:51:35;;;;;;;5.75;3.10;;;;;;;21.56;55.11;101845.41;5055388;28;20021;-59
2021/08/12 02:54:02;;;;;;;6.43;3.72;;;;;;;21.55;55.20;101843.72;5055580;28;20399;-59
2021/08/12 02:56:29;;;;;;;6.68;3.55;;;;;;;21.54;55.32;101844.69;5055715;28;20079;-59
2021/08/12 02:58:55;;;;;;;5.95;3.72;;;;;;;21.54;55.29;101844.69;5054585;28;20025;-59
2021/08/12 03:01:22;;;;;;;6.47;3.45;;;;;;;21.54;55.29;101844.69;5055741;28;20020;-59
2021/08/12 03:03:48;;;;;;;7.15;3.50;;;;;;;21.54;55.32;101839.41;5055148;28;20021;-60
2021/08/12 03:06:19;;;;;;;6.70;3.63;;;;;;;21.53;55.04;101832.41;5054801;28;20036;-60
2021/08/12 03:08:47;;;;;;;6.18;3.90;;;;;;;21.54;55.05;101839.41;5055012;28;20029;-60
2021/08/12 03:11:18;;;;;;;6.35;3.70;;;;;;;21.51;55.07;101829.03;5055296;28;20413;-58
2021/08/12 03:13:45;;;;;;;7.43;3.78;;;;;;;21.51;55.05;101837.00;5054505;28;20057;-59
2021/08/12 03:16:10;;;;;;;8.07;3.72;;;;;;;21.52;55.04;101842.16;5055311;28;20025;-59
2021/08/12 03:18:42;;;;;;;5.85;3.78;;;;;;;21.52;55.14;101841.31;5055325;28;20032;-60
2021/08/12 03:21:25;;;;;;;6.35;3.67;;;;;;;21.52;55.07;101833.34;5054393;28;20021;-60
2021/08/12 03:23:52;;;;;;;6.13;3.50;;;;;;;21.50;55.14;101822.84;5054829;28;20465;-59
2021/08/12 03:26:18;;;;;;;7.50;3.80;;;;;;;21.50;54.95;101819.38;5055045;28;20472;-59
2021/08/12 03:28:43;;;;;;;6.55;3.65;;;;;;;21.51;55.02;101818.41;5054052;28;20025;-59
2021/08/12 03:31:08;;;;;;;7.18;3.88;;;;;;;21.50;54.95;101827.34;5054926;28;20024;-59
2021/08/12 03:33:34;;;;;;;5.75;3.72;;;;;;;21.50;55.03;101838.78;5055035;28;20083;-59
2021/08/12 03:35:59;;;;;;;6.22;3.53;;;;;;;21.49;54.65;101829.16;5054178;28;20028;-59
2021/08/12 03:38:25;;;;;;;6.15;3.78;;;;;;;21.48;55.03;101832.75;5055241;28;20075;-59
2021/08/12 03:40:50;;;;;;;6.50;3.85;;;;;;;21.47;55.04;101828.38;5053767;28;20059;-59
2021/08/12 03:43:17;;;;;;;6.43;3.60;;;;;;;21.50;54.88;101827.34;5054784;28;20064;-59
2021/08/12 03:45:43;;;;;;;8.35;4.43;;;;;;;21.48;55.07;101830.09;5054783;28;20054;-60
2021/08/12 03:48:08;;;;;;;6.63;3.30;;;;;;;21.49;54.85;101836.25;5053803;28;20392;-58
2021/08/12 03:50:34;;;;;;;5.90;3.30;;;;;;;21.48;54.93;101839.84;5054772;28;20078;-59
2021/08/12 03:52:59;;;;;;;6.93;4.03;;;;;;;21.48;54.79;101830.09;5054318;28;20025;-59
2021/08/12 03:55:25;;;;;;;5.30;3.38;;;;;;;21.47;54.79;101838.16;5053926;28;20071;-62
2021/08/12 03:57:50;;;;;;;6.35;3.53;;;;;;;21.47;54.93;101836.34;5054366;28;20108;-60
2021/08/12 04:00:16;;;;;;;5.72;3.80;;;;;;;21.47;54.86;101846.09;5054405;28;20452;-60
2021/08/12 04:02:42;;;;;;;7.00;3.80;;;;;;;21.44;54.58;101835.75;5053956;28;20102;-59
2021/08/12 04:05:10;;;;;;;5.70;3.20;;;;;;;21.45;54.79;101834.78;5054082;28;20445;-59
2021/08/12 04:07:36;;;;;;;6.30;3.80;;;;;;;21.45;54.78;101842.75;5054406;28;20025;-61
2021/08/12 04:10:02;;;;;;;5.43;3.60;;;;;;;21.44;54.76;101854.31;5053315;28;20029;-59
2021/08/12 04:12:27;;;;;;;5.85;4.00;;;;;;;21.45;54.74;101842.75;5054303;28;20029;-59
2021/08/12 04:14:55;;;;;;;7.70;4.03;;;;;;;21.44;54.63;101835.75;5053820;28;20086;-58
2021/08/12 04:17:20;;;;;;;5.63;3.72;;;;;;;21.44;54.66;101841.03;5053685;28;20328;-60
2021/08/12 04:19:45;;;;;;;6.85;3.83;;;;;;;21.44;54.79;101846.34;5054067;28;20032;-59
2021/08/12 04:22:11;;;;;;;6.75;3.90;;;;;;;21.43;54.76;101842.00;5054111;28;20108;-61
2021/08/12 04:24:36;;;;;;;6.50;4.22;;;;;;;21.43;54.90;101842.88;5053527;28;20037;-64
2021/08/12 04:27:01;;;;;;;6.63;4.43;;;;;;;21.41;54.69;101836.81;5053940;28;20029;-59
2021/08/12 04:29:27;;;;;;;6.50;3.85;;;;;;;21.42;54.71;101838.53;5053923;28;20437;-59
2021/08/12 04:31:55;;;;;;;7.63;3.88;;;;;;;21.43;54.73;101844.66;5053021;28;20024;-58
2021/08/12 04:34:20;;;;;;;6.72;4.10;;;;;;;21.43;54.67;101852.59;5054224;28;20051;-59
2021/08/12 04:36:45;;;;;;;5.65;3.55;;;;;;;21.42;54.85;101853.59;5053856;28;20029;-60
2021/08/12 04:39:11;;;;;;;7.13;4.27;;;;;;;21.41;54.68;101858.03;5053258;28;20465;-60
2021/08/12 04:41:36;;;;;;;7.22;4.20;;;;;;;21.42;55.02;101858.91;5054125;28;20544;-61
2021/08/12 04:44:04;;;;;;;6.07;4.23;;;;;;;21.42;54.74;101856.25;5053073;28;20024;-58
2021/08/12 04:46:29;;;;;;;6.78;3.72;;;;;;;21.40;54.90;101848.41;5054102;28;20282;-59
2021/08/12 04:48:54;;;;;;;7.40;4.75;;;;;;;21.41;54.61;101858.03;5053899;28;20333;-59
2021/08/12 04:51:20;;;;;;;6.00;4.07;;;;;;;21.39;54.56;101852.03;5052279;28;20033;-59
2021/08/12 04:53:45;;;;;;;7.10;4.07;;;;;;;21.42;54.44;101869.50;5053766;28;20454;-60
2021/08/12 04:56:10;;;;;;;6.22;4.00;;;;;;;21.41;54.78;101875.75;5054064;28;20718;-60
2021/08/12 04:58:39;;;;;;;5.82;3.75;;;;;;;21.41;54.63;101875.75;5052615;28;20082;-60
2021/08/12 05:01:04;;;;;;;6.20;4.03;;;;;;;21.38;54.64;101869.75;5053190;28;20052;-60
2021/08/12 05:03:30;;;;;;;5.90;3.83;;;;;;;21.41;54.48;101876.59;5053467;28;20056;-59
2021/08/12 05:06:14;;;;;;;7.23;3.97;;;;;;;21.40;54.87;101874.94;5052384;28;20521;-59
2021/08/12 05:08:40;;;;;;;6.03;3.95;;;;;;;21.40;54.62;101868.78;5053102;28;20290;-59
2021/08/12 05:11:08;;;;;;;5.80;3.58;;;;;;;21.40;54.83;101866.16;5052930;28;20493;-59
2021/08/12 05:13:34;;;;;;;5.60;3.72;;;;;;;21.40;54.78;101866.16;5052479;28;20166;-58
2021/08/12 05:15:59;;;;;;;6.60;3.83;;;;;;;21.39;54.72;101865.28;5052808;28;20396;-59
2021/08/12 05:18:24;;;;;;;6.65;4.13;;;;;;;21.40;54.47;101868.78;5053047;28;20025;-59
2021/08/12 05:20:50;;;;;;;6.45;4.10;;;;;;;21.40;54.70;101868.78;5051928;28;20120;-58
2021/08/12 05:23:17;;;;;;;5.80;3.90;;;;;;;21.38;54.72;101863.63;5052692;28;20051;-58
2021/08/12 05:25:44;;;;;;;5.63;3.75;;;;;;;21.38;54.91;101859.13;5052844;28;20274;-58
2021/08/12 05:28:11;;;;;;;5.63;3.85;;;;;;;21.38;54.70;101850.34;5052069;28;20109;-59
2021/08/12 05:30:36;;;;;;;6.80;4.28;;;;;;;21.39;54.62;101857.31;5052920;28;20098;-59
2021/08/12 05:33:02;;;;;;;6.63;3.78;;;;;;;21.40;54.68;101855.53;5052383;28;20028;-58
2021/08/12 05:35:27;;;;;;;5.63;3.47;;;;;;;21.40;54.75;101863.50;5052305;28;20028;-58
2021/08/12 05:37:52;;;;;;;6.60;3.73;;;;;;;21.38;54.71;101858.31;5052336;28;20511;-59
2021/08/12 05:40:17;;;;;;;5.20;3.60;;;;;;;21.40;54.76;101855.53;5052379;28;20635;-58
2021/08/12 05:42:43;;;;;;;6.38;4.03;;;;;;;21.41;54.94;101867.81;5051615;28;20033;-60
2021/08/12 05:45:08;;;;;;;6.28;3.78;;;;;;;21.40;54.90;101866.97;5053180;28;20078;-59
2021/08/12 05:47:34;;;;;;;6.45;3.67;;;;;;;21.41;54.88;101865.16;5055263;28;20110;-58
2021/08/12 05:49:59;;;;;;;6.18;3.88;;;;;;;21.40;54.88;101866.97;5054433;28;20036;-58
2021/08/12 05:52:25;;;;;;;6.07;4.00;;;;;;;21.37;54.94;101857.44;5056006;28;20024;-59
2021/08/12 05:54:50;;;;;;;5.55;3.45;;;;;;;21.41;55.18;101868.66;5055401;28;20033;-59
2021/08/12 05:57:15;;;;;;;7.43;3.87;;;;;;;21.39;55.03;101873.22;5055265;28;20503;-59
2021/08/12 05:59:40;;;;;;;6.57;4.10;;;;;;;21.37;55.19;101873.34;5054871;28;20282;-60
2021/08/12 06:02:06;;;;;;;6.60;4.65;;;;;;;21.33;55.20;101877.22;5052998;28;20262;-59
2021/08/12 06:04:31;;;;;;;6.95;5.20;;;;;;;21.33;55.09;101882.53;5054752;28;20120;-60
2021/08/12 06:06:56;;;;;;;9.45;4.78;;;;;;;21.28;55.23;101874.06;5052584;28;20017;-61
2021/08/12 06:09:31;;;;;;;7.63;5.25;;;;;;;21.22;55.21;101863.13;5051512;28;20116;-60
2021/08/12 06:11:56;;;;;;;7.90;5.20;;;;;;;21.26;55.48;101876.00;5051971;28;20080;-61
2021/08/12 06:14:21;;;;;;;7.13;4.87;;;;;;;21.26;55.28;101876.00;5052499;28;20064;-61
2021/08/12 06:16:49;;;;;;;8.02;4.75;;;;;;;21.24;55.55;101870.00;5051127;28;20265;-61
2021/08/12 06:19:15;;;;;;;6.97;4.90;;;;;;;21.25;55.53;101878.78;5051948;28;20408;-61
2021/08/12 06:21:40;;;;;;;8.18;5.75;;;;;;;21.25;55.74;101879.63;5052130;28;20021;-61
2021/08/12 06:24:05;;;;;;;7.22;5.18;;;;;;;21.25;56.28;101878.78;5050954;28;20045;-63
2021/08/12 06:26:37;;;;;;;6.80;4.75;;;;;;;21.24;56.25;101883.25;5052262;28;20094;-63
2021/08/12 06:29:02;;;;;;;6.95;5.03;;;;;;;21.27;56.09;101892.75;5051529;28;20032;-60
2021/08/12 06:31:27;;;;;;;9.05;5.03;;;;;;;21.26;55.73;101877.81;5051212;28;20025;-63
2021/08/12 06:33:53;;;;;;;8.43;5.13;;;;;;;21.29;56.47;101877.59;5051573;28;20028;-61
2021/08/12 06:36:18;;;;;;;8.25;5.18;;;;;;;21.30;56.42;101879.25;5051871;28;20087;-60
2021/08/12 06:38:43;;;;;;;8.68;5.03;;;;;;;21.33;56.42;101884.31;5051150;28;20029;-60
2021/08/12 06:41:09;;;;;;;8.43;5.43;;;;;;;21.33;56.17;101890.47;5051770;28;20029;-60
2021/08/12 06:43:36;;;;;;;9.50;5.80;;;;;;;21.36;56.49;101892.03;5051999;28;20151;-60
2021/08/12 06:46:02;;;;;;;9.75;5.75;;;;;;;21.35;56.69;101885.06;5051551;28;20024;-60
2021/08/12 06:48:27;;;;;;;7.70;5.32;;;;;;;21.36;56.58;101887.59;5051764;28;20052;-60
2021/08/12 06:50:53;;;;;;;7.75;5.05;;;;;;;21.39;56.65;101886.50;5050917;28;20025;-58
2021/08/12 06:53:18;;;;;;;7.80;5.10;;;;;;;21.40;56.75;101884.69;5052486;28;20036;-61
2021/08/12 06:55:47;;;;;;;7.45;4.88;;;;;;;21.41;56.86;101894.31;5051734;28;20028;-59
2021/08/12 06:58:13;;;;;;;8.80;5.35;;;;;;;21.43;56.77;101889.72;5051185;28;20039;-59
2021/08/12 07:00:41;;;;;;;8.38;4.85;;;;;;;21.43;56.92;101887.09;5051595;28;20467;-60
2021/08/12 07:03:06;;;;;;;8.30;5.10;;;;;;;21.45;56.72;101887.81;5051427;28;20146;-59
2021/08/12 07:05:34;;;;;;;7.80;4.75;;;;;;;21.44;56.77;101880.81;5050785;28;20028;-59
2021/08/12 07:08:00;;;;;;;8.30;4.63;;;;;;;21.48;56.90;101885.81;5051364;28;20376;-59
2021/08/12 07:10:25;;;;;;;8.07;4.85;;;;;;;21.50;56.80;101891.81;5051746;28;20418;-58
2021/08/12 07:12:50;;;;;;;9.07;4.80;;;;;;;21.51;56.89;101880.25;5050594;28;20025;-61
2021/08/12 07:15:16;;;;;;;6.50;4.90;;;;;;;21.53;56.90;101880.97;5055174;28;20029;-62
2021/08/12 07:17:41;;;;;;;7.97;5.17;;;;;;;21.55;56.95;101880.84;5057581;28;20700;-60
2021/08/12 07:20:07;;;;;;;7.20;5.00;;;;;;;21.59;57.05;101882.31;5055529;28;20370;-61
2021/08/12 07:22:32;;;;;;;7.68;4.97;;;;;;;21.61;57.04;101880.34;5058046;28;20028;-61
2021/08/12 07:24:59;;;;;;;8.63;5.27;;;;;;;21.65;57.07;101884.47;5057189;28;20021;-62
2021/08/12 07:27:25;;;;;;;6.53;4.10;;;;;;;21.66;57.01;101880.81;5055053;28;20484;-61
2021/08/12 07:29:50;;;;;;;7.25;4.20;;;;;;;21.66;57.04;101880.81;5055054;28;20115;-60
2021/08/12 07:32:16;;;;;;;7.68;4.47;;;;;;;21.68;56.72;101886.00;5055517;28;20107;-60
2021/08/12 07:34:41;;;;;;;7.38;4.43;;;;;;;21.68;56.68;101888.66;5054125;28;20121;-60
2021/08/12 07:37:06;;;;;;;7.78;4.88;;;;;;;21.69;56.67;101885.88;5056653;28;20460;-60
2021/08/12 07:39:32;;;;;;;7.03;4.50;;;;;;;21.70;56.53;101889.41;5055588;28;20079;-62
2021/08/12 07:41:57;;;;;;;7.07;4.70;;;;;;;21.72;56.80;101895.44;5053740;28;20029;-61
2021/08/12 07:44:22;;;;;;;6.85;4.18;;;;;;;21.75;56.70;101889.88;5055474;28;20266;-60
2021/08/12 07:46:48;;;;;;;7.18;4.32;;;;;;;21.76;56.78;101890.69;5055071;28;20124;-62
2021/08/12 07:49:13;;;;;;;7.72;4.35;;;;;;;21.77;56.80;101889.75;5056223;28;20031;-60
2021/08/12 07:51:38;;;;;;;9.23;4.77;;;;;;;21.79;56.57;101893.13;5056568;28;20029;-60
2021/08/12 07:54:04;;;;;;;6.80;4.50;;;;;;;21.80;56.76;101887.69;5054462;28;20273;-61
2021/08/12 07:56:29;;;;;;;6.88;4.28;;;;;;;21.81;56.55;101892.03;5054867;28;20304;-62
2021/08/12 07:58:54;;;;;;;5.95;4.20;;;;;;;21.83;56.48;101891.91;5056553;28;20030;-61
2021/08/12 08:01:20;;;;;;;7.13;4.33;;;;;;;21.82;56.20;101899.00;5055256;28;20021;-61
2021/08/12 08:03:46;;;;;;;5.68;3.80;;;;;;;21.85;56.27;101897.94;5054491;28;20784;-61
2021/08/12 08:06:11;;;;;;;6.68;4.45;;;;;;;21.86;56.48;101896.97;5054142;28;20021;-59
2021/08/12 08:08:37;;;;;;;5.90;4.20;;;;;;;21.86;56.63;101897.81;5055058;28;20533;-59
2021/08/12 08:11:03;;;;;;;6.70;4.22;;;;;;;21.87;56.51;101902.16;5054170;28;20376;-61
2021/08/12 08:13:28;;;;;;;6.10;3.83;;;;;;;21.87;56.51;101902.16;5054314;28;20039;-59
2021/08/12 08:15:53;;;;;;;6.95;4.50;;;;;;;21.87;56.66;101896.84;5053740;28;20528;-61
2021/08/12 08:18:24;;;;;;;6.55;3.95;;;;;;;21.86;56.95;101900.47;5054034;28;20054;-59
2021/08/12 08:20:50;;;;;;;8.18;4.28;;;;;;;21.86;56.65;101895.16;5053374;28;20041;-58
2021/08/12 08:23:17;;;;;;;6.55;3.88;;;;;;;21.86;56.94;101894.31;5053523;28;20108;-59
2021/08/12 08:25:42;;;;;;;6.05;3.60;;;;;;;21.88;57.05;101903.00;5053992;28;20025;-60
2021/08/12 08:28:08;;;;;;;5.72;3.35;;;;;;;21.87;57.02;101898.63;5053694;28;20048;-60
2021/08/12 08:30:35;;;;;;;6.75;4.00;;;;;;;21.88;56.83;101895.88;5053130;28;20075;-59
2021/08/12 08:33:01;;;;;;;5.72;3.50;;;;;;;21.88;56.71;101895.88;5053607;28;20029;-59
2021/08/12 08:35:28;;;;;;;5.38;3.55;;;;;;;21.89;56.71;101900.22;5054833;28;20044;-60
2021/08/12 08:37:53;;;;;;;7.32;3.83;;;;;;;21.89;56.82;101897.56;5053093;28;20391;-59
2021/08/12 08:40:19;;;;;;;7.07;3.80;;;;;;;21.89;56.92;101894.06;5053526;28;20500;-58
2021/08/12 08:42:45;;;;;;;6.50;4.10;;;;;;;21.88;56.85;101892.38;5052808;28;20065;-58
2021/08/12 08:45:16;;;;;;;5.53;3.50;;;;;;;21.89;56.50;101894.06;5052920;28;20115;-60
2021/08/12 08:47:42;;;;;;;6.47;3.95;;;;;;;21.88;56.20;101895.88;5053272;28;20049;-59
2021/08/12 08:50:10;;;;;;;5.90;3.45;;;;;;;21.90;56.45;101895.75;5053327;28;20025;-62
2021/08/12 08:52:36;;;;;;;5.95;3.53;;;;;;;21.90;56.76;101896.59;5053304;28;20124;-62
2021/08/12 08:55:02;;;;;;;6.95;3.95;;;;;;;21.90;56.76;101895.75;5053346;28;20017;-59
2021/08/12 08:57:29;;;;;;;6.95;3.83;;;;;;;21.92;56.49;101892.00;5052425;28;20210;-59
2021/08/12 08:59:54;;;;;;;6.43;4.18;;;;;;;21.92;56.93;101899.97;5053301;28;20040;-61
2021/08/12 09:02:19;;;;;;;7.75;4.35;;;;;;;21.93;57.01;101901.63;5057008;28;20018;-62
2021/08/12 09:04:45;;;;;;;6.77;3.67;;;;;;;21.97;56.80;101899.59;5053992;28;20028;-60
2021/08/12 09:07:11;;;;;;;5.55;3.50;;;;;;;21.99;56.73;101897.66;5055135;28;20029;-60
2021/08/12 09:09:37;;;;;;;5.38;3.03;;;;;;;22.02;56.28;101901.88;5054232;28;20066;-61
2021/08/12 09:12:05;;;;;;;5.25;3.15;;;;;;;22.01;56.31;101890.41;5053210;28;20028;-61
2021/08/12 09:14:42;;;;;;;5.90;3.53;;;;;;;22.03;56.11;101899.09;5053921;28;20032;-60
2021/08/12 09:17:23;;;;;;;5.70;3.40;;;;;;;22.04;56.06;101898.13;5053451;28;20021;-61
2021/08/12 09:20:13;;;;;;;5.85;3.33;;;;;;;22.06;56.31;101900.66;5054579;28;20047;-61
2021/08/12 09:22:53;;;;;;;5.13;2.80;;;;;;;22.08;56.52;101896.06;5053051;28;20499;-61
2021/08/12 09:25:34;;;;;;;7.15;3.20;;;;;;;22.09;56.44;101901.22;5053022;28;20032;-59
2021/08/12 09:28:11;;;;;;;5.20;2.92;;;;;;;22.09;56.21;101906.53;5052699;28;20094;-59
2021/08/12 09:30:37;;;;;;;7.10;3.35;;;;;;;22.10;56.26;101908.22;5053011;28;20036;-58
2021/08/12 09:33:03;;;;;;;5.35;2.70;;;;;;;22.10;56.34;101899.44;5051788;28;20024;-59
2021/08/12 09:35:31;;;;;;;6.38;4.00;;;;;;;22.09;56.44;101892.44;5052702;28;20482;-60
2021/08/12 09:38:08;;;;;;;5.50;3.22;;;;;;;22.10;56.47;101894.13;5052225;28;20449;-60
2021/08/12 09:40:34;;;;;;;5.32;3.10;;;;;;;22.10;56.66;101897.63;5051952;28;20074;-58
2021/08/12 09:43:01;;;;;;;7.80;3.10;;;;;;;22.10;56.61;101891.47;5052254;28;20100;-59
2021/08/12 09:45:29;;;;;;;5.93;3.60;;;;;;;22.09;56.45;101893.25;5052286;28;20029;-59
2021/08/12 09:47:55;;;;;;;6.05;3.33;;;;;;;22.10;56.41;101891.47;5051269;28;20095;-58
2021/08/12 09:50:34;;;;;;;5.38;3.13;;;;;;;22.09;56.54;101879.16;5052373;28;20036;-60
2021/08/12 09:53:00;;;;;;;5.50;3.10;;;;;;;22.09;56.67;101890.59;5052317;28;20029;-60
2021/08/12 09:55:26;;;;;;;5.55;2.88;;;;;;;22.09;56.69;101893.25;5051656;28;20095;-60
2021/08/12 09:57:52;;;;;;;4.97;3.08;;;;;;;22.09;56.46;101895.09;5051912;28;20025;-60
2021/08/12 10:00:21;;;;;;;7.28;3.55;;;;;;;22.08;56.60;101890.75;5052354;28;20063;-58
2021/08/12 10:02:46;;;;;;;6.63;2.90;;;;;;;22.08;56.50;101888.94;5051124;28;20079;-58
2021/08/12 10:05:14;;;;;;;6.00;3.03;;;;;;;22.09;56.76;101889.78;5052518;28;20025;-60
2021/08/12 10:07:48;;;;;;;5.00;3.33;;;;;;;22.08;56.72;101886.28;5051580;28;20083;-58
2021/08/12 10:10:17;;;;;;;5.78;3.45;;;;;;;22.09;56.85;101887.13;5052830;28;20141;-58
2021/08/12 10:12:50;;;;;;;5.18;3.30;;;;;;;22.09;57.33;101893.25;5052379;28;20032;-58
2021/08/12 10:15:36;;;;;;;6.18;3.20;;;;;;;22.08;57.53;101878.31;5051352;28;20045;-59
2021/08/12 10:18:03;;;;;;;5.22;3.30;;;;;;;22.08;57.64;101870.38;5051397;28;20495;-60
2021/08/12 10:20:43;;;;;;;5.88;3.20;;;;;;;22.12;57.46;101870.09;5052433;28;20040;-60
2021/08/12 10:23:09;;;;;;;5.90;3.00;;;;;;;22.13;57.34;101869.97;5051716;28;20025;-61
2021/08/12 10:25:34;;;;;;;5.68;3.30;;;;;;;22.15;57.29;101865.38;5052042;28;20078;-59
2021/08/12 10:28:11;;;;;;;5.47;3.10;;;;;;;22.10;57.25;101863.09;5051715;28;20139;-58
2021/08/12 10:30:37;;;;;;;5.30;3.08;;;;;;;22.15;57.33;101868.03;5051031;28;20045;-60
2021/08/12 10:33:07;;;;;;;5.60;3.35;;;;;;;22.15;57.34;101861.91;5051547;28;20453;-59
2021/08/12 10:35:36;;;;;;;5.28;3.17;;;;;;;22.16;56.91;101858.25;5052123;28;20477;-58
2021/08/12 10:38:03;;;;;;;6.10;3.08;;;;;;;22.15;56.91;101859.25;5050777;28;20032;-59
2021/08/12 10:40:34;;;;;;;5.00;3.20;;;;;;;22.17;56.91;101859.94;5051722;28;20033;-59
2021/08/12 10:43:01;;;;;;;6.40;3.15;;;;;;;22.17;57.16;101863.44;5050969;28;20032;-59
2021/08/12 10:45:29;;;;;;;6.43;3.55;;;;;;;22.18;57.06;101861.66;5051909;28;20400;-59
2021/08/12 10:47:56;;;;;;;6.97;3.55;;;;;;;22.19;57.39;101864.19;5051278;28;20037;-59
2021/08/12 10:50:21;;;;;;;6.47;3.53;;;;;;;22.20;57.35;101855.22;5054493;28;20052;-58
2021/08/12 10:53:07;;;;;;;7.20;3.50;;;;;;;22.22;57.39;101863.06;5055224;28;20134;-59
2021/08/12 10:56:03;;;;;;;7.22;3.53;;;;;;;22.21;57.23;101856.91;5041132;28;20552;-58
2021/08/12 10:58:43;;;;;;;7.30;3.58;;;;;;;22.24;57.38;101858.47;5047964;28;20048;-59
2021/08/12 11:01:32;;;;;;;7.93;3.70;;;;;;;22.26;57.23;101854.72;5055300;28;20516;-59
2021/08/12 11:04:03;;;;;;;7.00;4.03;;;;;;;22.26;57.57;101852.06;5054408;28;20029;-60
2021/08/12 11:06:44;;;;;;;7.35;3.35;;;;;;;22.30;57.22;101850.00;5055567;28;20021;-60
2021/08/12 11:09:13;;;;;;;6.00;3.42;;;;;;;22.32;57.36;101845.44;5055307;28;20029;-60
2021/08/12 11:11:41;;;;;;;6.30;3.70;;;;;;;22.34;57.33;101848.81;5054639;28;20120;-59
2021/08/12 11:14:13;;;;;;;6.72;3.10;;;;;;;22.35;57.37;101839.88;5054964;28;20365;-58
2021/08/12 11:16:41;;;;;;;7.47;3.58;;;;;;;22.37;57.42;101850.38;5055394;28;20092;-61
2021/08/12 11:19:28;;;;;;;5.63;2.85;;;;;;;22.37;57.29;101850.38;5054126;28;20423;-61
2021/08/12 11:21:55;;;;;;;5.00;3.00;;;;;;;22.36;57.08;101857.47;5041263;28;20041;-63
2021/08/12 11:24:23;;;;;;;6.85;3.42;;;;;;;22.39;57.00;101854.56;5055285;28;20028;-61
2021/08/12 11:26:48;;;;;;;6.30;2.78;;;;;;;22.43;57.08;101860.44;5054085;28;20025;-60
2021/08/12 11:29:29;;;;;;;5.43;2.90;;;;;;;22.44;57.14;101854.19;5055110;28;20033;-61